Royal Melbourne — WDC2865 — position and weather

sailwx.info

Track history (hours):
 
Tides and Currents Weather Stations Pressure Air Temp Water Temp Dewpoint Dewpoint Depression Visibility Wind Speed Wind Dir Waves Ship Positions

Royal Melbourne

Owner: Harley Marine Services, Inc, Seattle, WA. More information available from US FCC via Universal Licensing System and Coast Guard Vessel Documentation Center.

Last reported at 2016-Feb-07 16:26 UTC. Time now 2016-Feb-07 17:29 UTC.
Position N 37°44' W 122°20'.

Length 30 m; draft 2 m.

Type: Tug. MMSI: 366998830.

Date/timePositionNaut miles runAvg speedWind from/ knotsBaromVisibWave heightAir tempDewpointWater temp
2016-Feb-07 16:26N 37°44' W 122°20'0 0.1
2016-Feb-07 15:32N 37°44' W 122°20'0 0.1
2016-Feb-07 14:32N 37°44' W 122°20'2 2.4
2016-Feb-07 13:33N 37°46' W 122°21'8 7.6
2016-Feb-07 12:33N 37°53' W 122°25'3 2.7
2016-Feb-07 11:33N 37°55' W 122°22'0 0.0
2016-Feb-07 10:33N 37°55' W 122°22'0 0.0
2016-Feb-07 09:33N 37°55' W 122°22'0 0.0
2016-Feb-07 08:33N 37°55' W 122°22'0 0.0
2016-Feb-07 07:33N 37°55' W 122°22'0 0.0
2016-Feb-07 06:32N 37°55' W 122°22'0 0.0
2016-Feb-07 05:32N 37°55' W 122°22'0 0.0
2016-Feb-07 04:26N 37°55' W 122°22'0 0.0
2016-Feb-07 03:32N 37°55' W 122°22'0 0.0
2016-Feb-07 02:32N 37°55' W 122°22'0 0.0
2016-Feb-07 01:32N 37°55' W 122°22'2 1.8
2016-Feb-07 00:33N 37°54' W 122°24'6 6.5
2016-Feb-06 23:33N 37°48' W 122°21'3 3.2
2016-Feb-06 22:33N 37°48' W 122°17'0 0.0
2016-Feb-06 21:33N 37°48' W 122°17'0 0.0
2016-Feb-06 20:33N 37°48' W 122°17'0 0.0
2016-Feb-06 19:33N 37°48' W 122°17'0 0.0
2016-Feb-06 18:33N 37°48' W 122°17'0 0.0
2016-Feb-06 17:33N 37°48' W 122°17'0 0.0
2016-Feb-06 16:33N 37°48' W 122°17'0 0.0
2016-Feb-06 15:33N 37°48' W 122°17'0 0.0
2016-Feb-06 14:32N 37°48' W 122°17'0 0.0
2016-Feb-06 13:32N 37°48' W 122°17'0 0.0
2016-Feb-06 12:33N 37°48' W 122°17'0 0.0
2016-Feb-06 11:33N 37°48' W 122°17'0 0.0
2016-Feb-06 10:33N 37°48' W 122°17'0 0.1
2016-Feb-06 09:34N 37°48' W 122°17'2 2.0
2016-Feb-06 08:32N 37°49' W 122°19'0 0.0
2016-Feb-06 07:32N 37°49' W 122°19'0 0.0
2016-Feb-06 06:32N 37°49' W 122°19'0 0.0
2016-Feb-06 05:32N 37°49' W 122°19'0 0.0
2016-Feb-06 04:32N 37°49' W 122°19'0 0.0
2016-Feb-06 03:32N 37°49' W 122°19'0 0.0
2016-Feb-06 02:32N 37°49' W 122°19'0 0.0
2016-Feb-06 01:32N 37°49' W 122°19'0 0.0
2016-Feb-06 00:32N 37°49' W 122°19'0 0.0
2016-Feb-05 23:32N 37°49' W 122°19'0 0.0
2016-Feb-05 22:32N 37°49' W 122°19'0 0.0
2016-Feb-05 21:33N 37°49' W 122°19'3 3.4
2016-Feb-05 20:33N 37°46' W 122°21'0 0.0
2016-Feb-05 19:32N 37°46' W 122°21'0 0.2
2016-Feb-05 18:32N 37°46' W 122°21'0 0.2
2016-Feb-05 17:32N 37°45' W 122°21'0 0.0
2016-Feb-05 16:32N 37°45' W 122°21'0 0.0
2016-Feb-05 15:32N 37°45' W 122°21'0 0.0
2016-Feb-05 14:32N 37°45' W 122°21'0 0.0
2016-Feb-05 13:33N 37°45' W 122°21'6 6.4
2016-Feb-05 12:33N 37°51' W 122°24'4 3.7
2016-Feb-05 11:33N 37°55' W 122°22'0 0.1
2016-Feb-05 10:34N 37°55' W 122°22'0 0.0
2016-Feb-05 09:33N 37°55' W 122°22'0 0.0
2016-Feb-05 08:33N 37°55' W 122°22'0 0.0
2016-Feb-05 07:33N 37°55' W 122°22'0 0.0
2016-Feb-05 06:30N 37°55' W 122°22'0 0.0
2016-Feb-05 05:30N 37°55' W 122°22'0 0.0
2016-Feb-05 04:30N 37°55' W 122°22'0 0.0
2016-Feb-05 03:33N 37°55' W 122°22'0 0.0
2016-Feb-05 02:33N 37°55' W 122°22'0 0.0
2016-Feb-05 01:27N 37°55' W 122°22'0 0.0
2016-Feb-05 00:33N 37°55' W 122°22'0 0.0
2016-Feb-04 23:33N 37°55' W 122°22'1 1.3
2016-Feb-04 22:33N 37°54' W 122°23'5 4.6
2016-Feb-04 21:33N 37°50' W 122°22'4 4.3
2016-Feb-04 20:31N 37°48' W 122°17'0 0.0
2016-Feb-04 19:31N 37°48' W 122°17'0 0.0
2016-Feb-04 18:31N 37°48' W 122°17'0 0.0
2016-Feb-04 17:31N 37°48' W 122°17'0 0.0
2016-Feb-04 16:31N 37°48' W 122°17'0 0.0
2016-Feb-04 15:34N 37°48' W 122°17'0 0.0
2016-Feb-04 14:34N 37°48' W 122°17'0 0.0
2016-Feb-04 13:30N 37°48' W 122°17'0 0.0
2016-Feb-04 12:33N 37°48' W 122°17'0 0.0
2016-Feb-04 11:33N 37°48' W 122°17'0 0.0
2016-Feb-04 10:33N 37°48' W 122°17'0 0.0
2016-Feb-04 09:30N 37°48' W 122°17'0 0.0
2016-Feb-04 08:33N 37°48' W 122°17'0 0.0
2016-Feb-04 07:30N 37°48' W 122°17'0 0.0
2016-Feb-04 06:33N 37°48' W 122°17'0 0.0
2016-Feb-04 05:33N 37°48' W 122°17'0 0.0
2016-Feb-04 04:30N 37°48' W 122°17'0 0.0
2016-Feb-04 03:30N 37°48' W 122°17'0 0.0
2016-Feb-04 02:33N 37°48' W 122°17'3 2.8
2016-Feb-04 01:34N 37°48' W 122°21'3 3.0
2016-Feb-04 00:32N 37°49' W 122°24'0 0.0
2016-Feb-03 23:32N 37°49' W 122°24'0 0.0
2016-Feb-03 22:32N 37°49' W 122°24'0 0.0
2016-Feb-03 21:32N 37°49' W 122°24'0 0.0
2016-Feb-03 20:32N 37°49' W 122°24'0 0.1
2016-Feb-03 19:32N 37°49' W 122°24'0 0.1
2016-Feb-03 18:34N 37°49' W 122°24'0 0.2
2016-Feb-03 17:34N 37°49' W 122°24'1 1.1
2016-Feb-03 16:33N 37°49' W 122°23'1 0.6
2016-Feb-03 15:34N 37°50' W 122°24'3 2.9
2016-Feb-03 14:34N 37°53' W 122°25'3 3.2
2016-Feb-03 13:33N 37°55' W 122°22'0 0.0
2016-Feb-03 12:31N 37°55' W 122°22'0 0.0
2016-Feb-03 11:28N 37°55' W 122°22'0 0.0
2016-Feb-03 10:31N 37°55' W 122°22'0 0.0
2016-Feb-03 09:31N 37°55' W 122°22'0 0.0
2016-Feb-03 08:31N 37°55' W 122°22'0 0.0
2016-Feb-03 07:31N 37°55' W 122°22'0 0.0
2016-Feb-03 06:31N 37°55' W 122°22'0 0.0
2016-Feb-03 05:31N 37°55' W 122°22'0 0.0
2016-Feb-03 04:31N 37°55' W 122°22'0 0.0
2016-Feb-03 03:28N 37°55' W 122°22'0 0.0
2016-Feb-03 02:28N 37°55' W 122°22'0 0.0
2016-Feb-03 01:31N 37°55' W 122°22'0 0.0
2016-Feb-03 00:31N 37°55' W 122°22'0 0.0
2016-Feb-02 23:31N 37°55' W 122°22'0 0.0
2016-Feb-02 22:31N 37°55' W 122°22'0 0.0
2016-Feb-02 21:28N 37°55' W 122°22'0 0.0
2016-Feb-02 20:31N 37°55' W 122°22'0 0.0
2016-Feb-02 19:31N 37°55' W 122°22'0 0.0
2016-Feb-02 18:28N 37°55' W 122°22'0 0.0
2016-Feb-02 17:31N 37°55' W 122°22'0 0.0
2016-Feb-02 16:31N 37°55' W 122°22'0 0.3
2016-Feb-02 15:34N 37°55' W 122°22'5 4.9
2016-Feb-02 14:33N 37°50' W 122°22'4 4.4
2016-Feb-02 13:33N 37°48' W 122°17'0 0.0
2016-Feb-02 12:33N 37°48' W 122°17'0 0.0
2016-Feb-02 11:33N 37°48' W 122°17'0 0.0
2016-Feb-02 10:33N 37°48' W 122°17'0 0.0
2016-Feb-02 09:33N 37°48' W 122°17'0 0.0
2016-Feb-02 08:33N 37°48' W 122°17'0 0.0
2016-Feb-02 07:30N 37°48' W 122°17'0 0.0
2016-Feb-02 06:30N 37°48' W 122°17'0 0.0
2016-Feb-02 05:33N 37°48' W 122°17'0 0.0
2016-Feb-02 04:33N 37°48' W 122°17'0 0.0
2016-Feb-02 03:33N 37°48' W 122°17'0 0.0
2016-Feb-02 02:33N 37°48' W 122°17'0 0.0
2016-Feb-02 01:33N 37°48' W 122°17'0 0.0
2016-Feb-02 00:33N 37°48' W 122°17'0 0.0
2016-Feb-01 23:33N 37°48' W 122°17'0 0.0
2016-Feb-01 22:33N 37°48' W 122°17'0 0.0
2016-Feb-01 21:33N 37°48' W 122°17'0 0.0
2016-Feb-01 20:30N 37°48' W 122°17'0 0.0
2016-Feb-01 19:33N 37°48' W 122°17'0 0.0
2016-Feb-01 18:33N 37°48' W 122°17'0 0.0
2016-Feb-01 17:33N 37°48' W 122°17'0 0.0
2016-Feb-01 16:33N 37°48' W 122°17'0 0.0
2016-Feb-01 15:32N 37°48' W 122°17'0 0.0
2016-Feb-01 14:32N 37°48' W 122°17'0 0.0
2016-Feb-01 13:32N 37°48' W 122°17'0 0.0
2016-Feb-01 12:32N 37°48' W 122°17'0 0.0
2016-Feb-01 11:32N 37°48' W 122°17'0 0.0
2016-Feb-01 10:32N 37°48' W 122°17'0 0.0
2016-Feb-01 09:32N 37°48' W 122°17'0 0.0
2016-Feb-01 08:32N 37°48' W 122°17'0 0.0
2016-Feb-01 07:32N 37°48' W 122°17'0 0.0
2016-Feb-01 06:32N 37°48' W 122°17'0 0.0
2016-Feb-01 05:32N 37°48' W 122°17'0 0.0
2016-Feb-01 04:32N 37°48' W 122°17'0 0.0
2016-Feb-01 03:32N 37°48' W 122°17'0 0.0
2016-Feb-01 02:32N 37°48' W 122°17'0 0.0
2016-Feb-01 01:32N 37°48' W 122°17'0 0.0
2016-Feb-01 00:32N 37°48' W 122°17'0 0.0
2016-Jan-31 23:32N 37°48' W 122°17'0 0.0
2016-Jan-31 22:32N 37°48' W 122°17'0 0.0
2016-Jan-31 21:34N 37°48' W 122°17'5 5.1
2016-Jan-31 20:33N 37°50' W 122°22'9 9.4
2016-Jan-31 19:33N 37°60' W 122°25'8 8.3
2016-Jan-31 18:33N 38°03' W 122°16'0 0.0
2016-Jan-31 17:28N 38°03' W 122°16'0 0.0
2016-Jan-31 16:28N 38°03' W 122°16'0 0.0
2016-Jan-31 15:28N 38°03' W 122°16'0 0.0
2016-Jan-31 14:33N 38°03' W 122°16'1 0.0
2016-Jan-30 14:33N 38°04' W 122°15'8 7.9
2016-Jan-30 13:33N 38°01' W 122°24'8 8.4
2016-Jan-30 12:33N 37°52' W 122°24'7 7.2
2016-Jan-30 11:33N 37°48' W 122°17'0 0.0
2016-Jan-30 10:33N 37°48' W 122°17'0 0.0
2016-Jan-30 09:33N 37°48' W 122°17'0 0.0
2016-Jan-30 08:33N 37°48' W 122°17'0 0.0
2016-Jan-30 07:33N 37°48' W 122°17'0 0.0
2016-Jan-30 06:33N 37°48' W 122°17'0 0.0
2016-Jan-30 05:33N 37°48' W 122°17'0 0.0
2016-Jan-30 04:33N 37°48' W 122°17'0 0.0
2016-Jan-30 03:33N 37°48' W 122°17'0 0.0
2016-Jan-30 02:33N 37°48' W 122°17'0 0.0
2016-Jan-30 01:32N 37°48' W 122°17'0 0.0
2016-Jan-30 00:33N 37°48' W 122°17'0 0.0
2016-Jan-29 23:32N 37°48' W 122°17'0 0.0
2016-Jan-29 22:32N 37°48' W 122°17'0 0.0
2016-Jan-29 21:32N 37°48' W 122°17'0 0.0
2016-Jan-29 20:32N 37°48' W 122°17'0 0.0
2016-Jan-29 19:32N 37°48' W 122°17'0 0.0
2016-Jan-29 18:32N 37°48' W 122°17'0 0.0
2016-Jan-29 17:32N 37°48' W 122°17'0 0.0
2016-Jan-29 16:32N 37°48' W 122°17'0 0.0
2016-Jan-29 15:32N 37°48' W 122°17'0 0.0
2016-Jan-29 14:32N 37°48' W 122°17'0 0.0
2016-Jan-29 13:32N 37°48' W 122°17'0 0.0
2016-Jan-29 12:32N 37°48' W 122°17'0 0.0
2016-Jan-29 11:32N 37°48' W 122°17'0 0.0
2016-Jan-29 10:32N 37°48' W 122°17'0 0.0
2016-Jan-29 09:32N 37°48' W 122°17'0 0.0
2016-Jan-29 08:32N 37°48' W 122°17'0 0.0
2016-Jan-29 07:32N 37°48' W 122°17'0 0.0
2016-Jan-29 06:32N 37°48' W 122°17'0 0.0
2016-Jan-29 05:32N 37°48' W 122°17'0 0.0
2016-Jan-29 04:32N 37°48' W 122°17'0 0.0
2016-Jan-29 03:32N 37°48' W 122°17'0 0.0
2016-Jan-29 02:32N 37°48' W 122°17'0 0.0
2016-Jan-29 01:32N 37°48' W 122°17'0 0.0
2016-Jan-29 00:32N 37°48' W 122°17'0 0.0
2016-Jan-28 23:32N 37°48' W 122°17'0 0.0
2016-Jan-28 22:32N 37°48' W 122°17'0 0.0
2016-Jan-28 21:32N 37°48' W 122°17'0 0.0
2016-Jan-28 20:32N 37°48' W 122°17'0 0.0
2016-Jan-28 19:32N 37°48' W 122°17'0 0.0
2016-Jan-28 18:32N 37°48' W 122°17'0 0.0
2016-Jan-28 17:31N 37°48' W 122°17'0 0.0
2016-Jan-28 16:32N 37°48' W 122°17'  
Track history (hours):
 
Tides and Currents Weather Stations Pressure Air Temp Water Temp Dewpoint Dewpoint Depression Visibility Wind Speed Wind Dir Waves Ship Positions

Royal Melbourne

Owner: Harley Marine Services, Inc, Seattle, WA. More information available from US FCC via Universal Licensing System and Coast Guard Vessel Documentation Center.

Last reported at 2016-Feb-07 16:26 UTC. Time now 2016-Feb-07 17:29 UTC.
Position N 37°44' W 122°20'.

Length 30 m; draft 2 m.

Type: Tug. MMSI: 366998830.

Date/timePositionNaut miles runAvg speedWind from/ knotsBaromVisibWave heightAir tempDewpointWater temp
2016-Feb-07 16:26N 37°44' W 122°20'0 0.1
2016-Feb-07 15:32N 37°44' W 122°20'0 0.1
2016-Feb-07 14:32N 37°44' W 122°20'2 2.4
2016-Feb-07 13:33N 37°46' W 122°21'8 7.6
2016-Feb-07 12:33N 37°53' W 122°25'3 2.7
2016-Feb-07 11:33N 37°55' W 122°22'0 0.0
2016-Feb-07 10:33N 37°55' W 122°22'0 0.0
2016-Feb-07 09:33N 37°55' W 122°22'0 0.0
2016-Feb-07 08:33N 37°55' W 122°22'0 0.0
2016-Feb-07 07:33N 37°55' W 122°22'0 0.0
2016-Feb-07 06:32N 37°55' W 122°22'0 0.0
2016-Feb-07 05:32N 37°55' W 122°22'0 0.0
2016-Feb-07 04:26N 37°55' W 122°22'0 0.0
2016-Feb-07 03:32N 37°55' W 122°22'0 0.0
2016-Feb-07 02:32N 37°55' W 122°22'0 0.0
2016-Feb-07 01:32N 37°55' W 122°22'2 1.8
2016-Feb-07 00:33N 37°54' W 122°24'6 6.5
2016-Feb-06 23:33N 37°48' W 122°21'3 3.2
2016-Feb-06 22:33N 37°48' W 122°17'0 0.0
2016-Feb-06 21:33N 37°48' W 122°17'0 0.0
2016-Feb-06 20:33N 37°48' W 122°17'0 0.0
2016-Feb-06 19:33N 37°48' W 122°17'0 0.0
2016-Feb-06 18:33N 37°48' W 122°17'0 0.0
2016-Feb-06 17:33N 37°48' W 122°17'0 0.0
2016-Feb-06 16:33N 37°48' W 122°17'0 0.0
2016-Feb-06 15:33N 37°48' W 122°17'0 0.0
2016-Feb-06 14:32N 37°48' W 122°17'0 0.0
2016-Feb-06 13:32N 37°48' W 122°17'0 0.0
2016-Feb-06 12:33N 37°48' W 122°17'0 0.0
2016-Feb-06 11:33N 37°48' W 122°17'0 0.0
2016-Feb-06 10:33N 37°48' W 122°17'0 0.1
2016-Feb-06 09:34N 37°48' W 122°17'2 2.0
2016-Feb-06 08:32N 37°49' W 122°19'0 0.0
2016-Feb-06 07:32N 37°49' W 122°19'0 0.0
2016-Feb-06 06:32N 37°49' W 122°19'0 0.0
2016-Feb-06 05:32N 37°49' W 122°19'0 0.0
2016-Feb-06 04:32N 37°49' W 122°19'0 0.0
2016-Feb-06 03:32N 37°49' W 122°19'0 0.0
2016-Feb-06 02:32N 37°49' W 122°19'0 0.0
2016-Feb-06 01:32N 37°49' W 122°19'0 0.0
2016-Feb-06 00:32N 37°49' W 122°19'0 0.0
2016-Feb-05 23:32N 37°49' W 122°19'0 0.0
2016-Feb-05 22:32N 37°49' W 122°19'0 0.0
2016-Feb-05 21:33N 37°49' W 122°19'3 3.4
2016-Feb-05 20:33N 37°46' W 122°21'0 0.0
2016-Feb-05 19:32N 37°46' W 122°21'0 0.2
2016-Feb-05 18:32N 37°46' W 122°21'0 0.2
2016-Feb-05 17:32N 37°45' W 122°21'0 0.0
2016-Feb-05 16:32N 37°45' W 122°21'0 0.0
2016-Feb-05 15:32N 37°45' W 122°21'0 0.0
2016-Feb-05 14:32N 37°45' W 122°21'0 0.0
2016-Feb-05 13:33N 37°45' W 122°21'6 6.4
2016-Feb-05 12:33N 37°51' W 122°24'4 3.7
2016-Feb-05 11:33N 37°55' W 122°22'0 0.1
2016-Feb-05 10:34N 37°55' W 122°22'0 0.0
2016-Feb-05 09:33N 37°55' W 122°22'0 0.0
2016-Feb-05 08:33N 37°55' W 122°22'0 0.0
2016-Feb-05 07:33N 37°55' W 122°22'0 0.0
2016-Feb-05 06:30N 37°55' W 122°22'0 0.0
2016-Feb-05 05:30N 37°55' W 122°22'0 0.0
2016-Feb-05 04:30N 37°55' W 122°22'0 0.0
2016-Feb-05 03:33N 37°55' W 122°22'0 0.0
2016-Feb-05 02:33N 37°55' W 122°22'0 0.0
2016-Feb-05 01:27N 37°55' W 122°22'0 0.0
2016-Feb-05 00:33N 37°55' W 122°22'0 0.0
2016-Feb-04 23:33N 37°55' W 122°22'1 1.3
2016-Feb-04 22:33N 37°54' W 122°23'5 4.6
2016-Feb-04 21:33N 37°50' W 122°22'4 4.3
2016-Feb-04 20:31N 37°48' W 122°17'0 0.0
2016-Feb-04 19:31N 37°48' W 122°17'0 0.0
2016-Feb-04 18:31N 37°48' W 122°17'0 0.0
2016-Feb-04 17:31N 37°48' W 122°17'0 0.0
2016-Feb-04 16:31N 37°48' W 122°17'0 0.0
2016-Feb-04 15:34N 37°48' W 122°17'0 0.0
2016-Feb-04 14:34N 37°48' W 122°17'0 0.0
2016-Feb-04 13:30N 37°48' W 122°17'0 0.0
2016-Feb-04 12:33N 37°48' W 122°17'0 0.0
2016-Feb-04 11:33N 37°48' W 122°17'0 0.0
2016-Feb-04 10:33N 37°48' W 122°17'0 0.0
2016-Feb-04 09:30N 37°48' W 122°17'0 0.0
2016-Feb-04 08:33N 37°48' W 122°17'0 0.0
2016-Feb-04 07:30N 37°48' W 122°17'0 0.0
2016-Feb-04 06:33N 37°48' W 122°17'0 0.0
2016-Feb-04 05:33N 37°48' W 122°17'0 0.0
2016-Feb-04 04:30N 37°48' W 122°17'0 0.0
2016-Feb-04 03:30N 37°48' W 122°17'0 0.0
2016-Feb-04 02:33N 37°48' W 122°17'3 2.8
2016-Feb-04 01:34N 37°48' W 122°21'3 3.0
2016-Feb-04 00:32N 37°49' W 122°24'0 0.0
2016-Feb-03 23:32N 37°49' W 122°24'0 0.0
2016-Feb-03 22:32N 37°49' W 122°24'0 0.0
2016-Feb-03 21:32N 37°49' W 122°24'0 0.0
2016-Feb-03 20:32N 37°49' W 122°24'0 0.1
2016-Feb-03 19:32N 37°49' W 122°24'0 0.1
2016-Feb-03 18:34N 37°49' W 122°24'0 0.2
2016-Feb-03 17:34N 37°49' W 122°24'1 1.1
2016-Feb-03 16:33N 37°49' W 122°23'1 0.6
2016-Feb-03 15:34N 37°50' W 122°24'3 2.9
2016-Feb-03 14:34N 37°53' W 122°25'3 3.2
2016-Feb-03 13:33N 37°55' W 122°22'0 0.0
2016-Feb-03 12:31N 37°55' W 122°22'0 0.0
2016-Feb-03 11:28N 37°55' W 122°22'0 0.0
2016-Feb-03 10:31N 37°55' W 122°22'0 0.0
2016-Feb-03 09:31N 37°55' W 122°22'0 0.0
2016-Feb-03 08:31N 37°55' W 122°22'0 0.0
2016-Feb-03 07:31N 37°55' W 122°22'0 0.0
2016-Feb-03 06:31N 37°55' W 122°22'0 0.0
2016-Feb-03 05:31N 37°55' W 122°22'0 0.0
2016-Feb-03 04:31N 37°55' W 122°22'0 0.0
2016-Feb-03 03:28N 37°55' W 122°22'0 0.0
2016-Feb-03 02:28N 37°55' W 122°22'0 0.0
2016-Feb-03 01:31N 37°55' W 122°22'0 0.0
2016-Feb-03 00:31N 37°55' W 122°22'0 0.0
2016-Feb-02 23:31N 37°55' W 122°22'0 0.0
2016-Feb-02 22:31N 37°55' W 122°22'0 0.0
2016-Feb-02 21:28N 37°55' W 122°22'0 0.0
2016-Feb-02 20:31N 37°55' W 122°22'0 0.0
2016-Feb-02 19:31N 37°55' W 122°22'0 0.0
2016-Feb-02 18:28N 37°55' W 122°22'0 0.0
2016-Feb-02 17:31N 37°55' W 122°22'0 0.0
2016-Feb-02 16:31N 37°55' W 122°22'0 0.3
2016-Feb-02 15:34N 37°55' W 122°22'5 4.9
2016-Feb-02 14:33N 37°50' W 122°22'4 4.4
2016-Feb-02 13:33N 37°48' W 122°17'0 0.0
2016-Feb-02 12:33N 37°48' W 122°17'0 0.0
2016-Feb-02 11:33N 37°48' W 122°17'0 0.0
2016-Feb-02 10:33N 37°48' W 122°17'0 0.0
2016-Feb-02 09:33N 37°48' W 122°17'0 0.0
2016-Feb-02 08:33N 37°48' W 122°17'0 0.0
2016-Feb-02 07:30N 37°48' W 122°17'0 0.0
2016-Feb-02 06:30N 37°48' W 122°17'0 0.0
2016-Feb-02 05:33N 37°48' W 122°17'0 0.0
2016-Feb-02 04:33N 37°48' W 122°17'0 0.0
2016-Feb-02 03:33N 37°48' W 122°17'0 0.0
2016-Feb-02 02:33N 37°48' W 122°17'0 0.0
2016-Feb-02 01:33N 37°48' W 122°17'0 0.0
2016-Feb-02 00:33N 37°48' W 122°17'0 0.0
2016-Feb-01 23:33N 37°48' W 122°17'0 0.0
2016-Feb-01 22:33N 37°48' W 122°17'0 0.0
2016-Feb-01 21:33N 37°48' W 122°17'0 0.0
2016-Feb-01 20:30N 37°48' W 122°17'0 0.0
2016-Feb-01 19:33N 37°48' W 122°17'0 0.0
2016-Feb-01 18:33N 37°48' W 122°17'0 0.0
2016-Feb-01 17:33N 37°48' W 122°17'0 0.0
2016-Feb-01 16:33N 37°48' W 122°17'0 0.0
2016-Feb-01 15:32N 37°48' W 122°17'0 0.0
2016-Feb-01 14:32N 37°48' W 122°17'0 0.0
2016-Feb-01 13:32N 37°48' W 122°17'0 0.0
2016-Feb-01 12:32N 37°48' W 122°17'0 0.0
2016-Feb-01 11:32N 37°48' W 122°17'0 0.0
2016-Feb-01 10:32N 37°48' W 122°17'0 0.0
2016-Feb-01 09:32N 37°48' W 122°17'0 0.0
2016-Feb-01 08:32N 37°48' W 122°17'0 0.0
2016-Feb-01 07:32N 37°48' W 122°17'0 0.0
2016-Feb-01 06:32N 37°48' W 122°17'0 0.0
2016-Feb-01 05:32N 37°48' W 122°17'0 0.0
2016-Feb-01 04:32N 37°48' W 122°17'0 0.0
2016-Feb-01 03:32N 37°48' W 122°17'0 0.0
2016-Feb-01 02:32N 37°48' W 122°17'0 0.0
2016-Feb-01 01:32N 37°48' W 122°17'0 0.0
2016-Feb-01 00:32N 37°48' W 122°17'0 0.0
2016-Jan-31 23:32N 37°48' W 122°17'0 0.0
2016-Jan-31 22:32N 37°48' W 122°17'0 0.0
2016-Jan-31 21:34N 37°48' W 122°17'5 5.1
2016-Jan-31 20:33N 37°50' W 122°22'9 9.4
2016-Jan-31 19:33N 37°60' W 122°25'8 8.3
2016-Jan-31 18:33N 38°03' W 122°16'0 0.0
2016-Jan-31 17:28N 38°03' W 122°16'0 0.0
2016-Jan-31 16:28N 38°03' W 122°16'0 0.0
2016-Jan-31 15:28N 38°03' W 122°16'0 0.0
2016-Jan-31 14:33N 38°03' W 122°16'1 0.0
2016-Jan-30 14:33N 38°04' W 122°15'8 7.9
2016-Jan-30 13:33N 38°01' W 122°24'8 8.4
2016-Jan-30 12:33N 37°52' W 122°24'7 7.2
2016-Jan-30 11:33N 37°48' W 122°17'0 0.0
2016-Jan-30 10:33N 37°48' W 122°17'0 0.0
2016-Jan-30 09:33N 37°48' W 122°17'0 0.0
2016-Jan-30 08:33N 37°48' W 122°17'0 0.0
2016-Jan-30 07:33N 37°48' W 122°17'0 0.0
2016-Jan-30 06:33N 37°48' W 122°17'0 0.0
2016-Jan-30 05:33N 37°48' W 122°17'0 0.0
2016-Jan-30 04:33N 37°48' W 122°17'0 0.0
2016-Jan-30 03:33N 37°48' W 122°17'0 0.0
2016-Jan-30 02:33N 37°48' W 122°17'0 0.0
2016-Jan-30 01:32N 37°48' W 122°17'0 0.0
2016-Jan-30 00:33N 37°48' W 122°17'0 0.0
2016-Jan-29 23:32N 37°48' W 122°17'0 0.0
2016-Jan-29 22:32N 37°48' W 122°17'0 0.0
2016-Jan-29 21:32N 37°48' W 122°17'0 0.0
2016-Jan-29 20:32N 37°48' W 122°17'0 0.0
2016-Jan-29 19:32N 37°48' W 122°17'0 0.0
2016-Jan-29 18:32N 37°48' W 122°17'0 0.0
2016-Jan-29 17:32N 37°48' W 122°17'0 0.0
2016-Jan-29 16:32N 37°48' W 122°17'0 0.0
2016-Jan-29 15:32N 37°48' W 122°17'0 0.0
2016-Jan-29 14:32N 37°48' W 122°17'0 0.0
2016-Jan-29 13:32N 37°48' W 122°17'0 0.0
2016-Jan-29 12:32N 37°48' W 122°17'0 0.0
2016-Jan-29 11:32N 37°48' W 122°17'0 0.0
2016-Jan-29 10:32N 37°48' W 122°17'0 0.0
2016-Jan-29 09:32N 37°48' W 122°17'0 0.0
2016-Jan-29 08:32N 37°48' W 122°17'0 0.0
2016-Jan-29 07:32N 37°48' W 122°17'0 0.0
2016-Jan-29 06:32N 37°48' W 122°17'0 0.0
2016-Jan-29 05:32N 37°48' W 122°17'0 0.0
2016-Jan-29 04:32N 37°48' W 122°17'0 0.0
2016-Jan-29 03:32N 37°48' W 122°17'0 0.0
2016-Jan-29 02:32N 37°48' W 122°17'0 0.0
2016-Jan-29 01:32N 37°48' W 122°17'0 0.0
2016-Jan-29 00:32N 37°48' W 122°17'0 0.0
2016-Jan-28 23:32N 37°48' W 122°17'0 0.0
2016-Jan-28 22:32N 37°48' W 122°17'0 0.0
2016-Jan-28 21:32N 37°48' W 122°17'0 0.0
2016-Jan-28 20:32N 37°48' W 122°17'0 0.0
2016-Jan-28 19:32N 37°48' W 122°17'0 0.0
2016-Jan-28 18:32N 37°48' W 122°17'0 0.0
2016-Jan-28 17:31N 37°48' W 122°17'0 0.0
2016-Jan-28 16:32N 37°48' W 122°17'  

Dump ship's entire track history